sensor_id;sensor_type;location;lat;lon;timestamp;P1;durP1;ratioP1;P2;durP2;ratioP2
23181;SDS011;11759;51.282;6.642;2023-07-20T00:02:18;595.05;;;221.75;;
23181;SDS011;11759;51.282;6.642;2023-07-20T00:04:44;584.15;;;206.57;;
23181;SDS011;11759;51.282;6.642;2023-07-20T00:07:11;589.95;;;209.25;;
23181;SDS011;11759;51.282;6.642;2023-07-20T00:09:37;588.78;;;212.27;;
23181;SDS011;11759;51.282;6.642;2023-07-20T00:12:04;585.50;;;211.95;;
23181;SDS011;11759;51.282;6.642;2023-07-20T00:14:31;626.42;;;254.32;;
23181;SDS011;11759;51.282;6.642;2023-07-20T00:16:58;582.17;;;199.43;;
23181;SDS011;11759;51.282;6.642;2023-07-20T00:19:25;641.65;;;277.45;;
23181;SDS011;11759;51.282;6.642;2023-07-20T00:21:53;585.40;;;212.85;;
23181;SDS011;11759;51.282;6.642;2023-07-20T00:24:21;598.38;;;226.70;;
23181;SDS011;11759;51.282;6.642;2023-07-20T00:26:48;583.80;;;205.20;;
23181;SDS011;11759;51.282;6.642;2023-07-20T00:29:15;621.33;;;250.38;;
23181;SDS011;11759;51.282;6.642;2023-07-20T00:31:42;586.55;;;207.73;;
23181;SDS011;11759;51.282;6.642;2023-07-20T00:34:10;585.83;;;212.32;;
23181;SDS011;11759;51.282;6.642;2023-07-20T00:36:38;594.08;;;226.07;;
23181;SDS011;11759;51.282;6.642;2023-07-20T00:39:05;610.50;;;252.52;;
23181;SDS011;11759;51.282;6.642;2023-07-20T00:41:33;580.40;;;190.15;;
23181;SDS011;11759;51.282;6.642;2023-07-20T00:44:01;586.42;;;209.88;;
23181;SDS011;11759;51.282;6.642;2023-07-20T00:46:28;612.40;;;245.30;;
23181;SDS011;11759;51.282;6.642;2023-07-20T00:48:55;591.67;;;207.75;;
23181;SDS011;11759;51.282;6.642;2023-07-20T00:51:22;586.47;;;200.50;;
23181;SDS011;11759;51.282;6.642;2023-07-20T00:53:50;593.95;;;203.38;;
23181;SDS011;11759;51.282;6.642;2023-07-20T00:56:16;581.58;;;187.82;;
23181;SDS011;11759;51.282;6.642;2023-07-20T00:58:43;585.25;;;197.02;;
23181;SDS011;11759;51.282;6.642;2023-07-20T01:01:10;614.58;;;224.00;;
23181;SDS011;11759;51.282;6.642;2023-07-20T01:03:37;594.78;;;207.35;;
23181;SDS011;11759;51.282;6.642;2023-07-20T01:06:09;593.03;;;203.73;;
23181;SDS011;11759;51.282;6.642;2023-07-20T01:14:26;589.55;;;193.07;;
23181;SDS011;11759;51.282;6.642;2023-07-20T01:16:53;609.83;;;221.02;;
23181;SDS011;11759;51.282;6.642;2023-07-20T01:19:20;586.53;;;199.27;;
23181;SDS011;11759;51.282;6.642;2023-07-20T01:27:38;582.60;;;184.55;;
23181;SDS011;11759;51.282;6.642;2023-07-20T01:33:13;602.60;;;207.93;;
23181;SDS011;11759;51.282;6.642;2023-07-20T01:35:40;588.63;;;191.60;;
23181;SDS011;11759;51.282;6.642;2023-07-20T01:38:08;603.35;;;214.52;;
23181;SDS011;11759;51.282;6.642;2023-07-20T01:40:35;594.80;;;199.40;;
23181;SDS011;11759;51.282;6.642;2023-07-20T01:43:03;589.20;;;196.23;;
23181;SDS011;11759;51.282;6.642;2023-07-20T01:45:30;598.72;;;204.15;;
23181;SDS011;11759;51.282;6.642;2023-07-20T01:47:57;582.03;;;187.88;;
23181;SDS011;11759;51.282;6.642;2023-07-20T01:50:24;602.92;;;209.98;;
23181;SDS011;11759;51.282;6.642;2023-07-20T01:52:51;582.08;;;182.68;;
23181;SDS011;11759;51.282;6.642;2023-07-20T01:55:18;626.45;;;234.20;;
23181;SDS011;11759;51.282;6.642;2023-07-20T01:57:45;589.10;;;191.93;;
23181;SDS011;11759;51.282;6.642;2023-07-20T02:00:12;623.85;;;239.85;;
23181;SDS011;11759;51.282;6.642;2023-07-20T02:02:42;581.92;;;183.57;;
23181;SDS011;11759;51.282;6.642;2023-07-20T02:05:09;618.40;;;227.48;;
23181;SDS011;11759;51.282;6.642;2023-07-20T02:07:36;583.13;;;183.88;;
23181;SDS011;11759;51.282;6.642;2023-07-20T02:10:03;585.50;;;185.45;;
23181;SDS011;11759;51.282;6.642;2023-07-20T02:12:31;598.60;;;198.02;;
23181;SDS011;11759;51.282;6.642;2023-07-20T02:14:58;579.40;;;175.88;;
23181;SDS011;11759;51.282;6.642;2023-07-20T02:17:24;596.95;;;193.50;;
23181;SDS011;11759;51.282;6.642;2023-07-20T02:19:55;579.08;;;176.13;;
23181;SDS011;11759;51.282;6.642;2023-07-20T02:22:22;607.65;;;215.07;;
23181;SDS011;11759;51.282;6.642;2023-07-20T02:24:50;579.40;;;181.52;;
23181;SDS011;11759;51.282;6.642;2023-07-20T02:27:16;626.25;;;245.77;;
23181;SDS011;11759;51.282;6.642;2023-07-20T02:29:43;583.85;;;203.35;;
23181;SDS011;11759;51.282;6.642;2023-07-20T02:32:10;606.03;;;228.48;;
23181;SDS011;11759;51.282;6.642;2023-07-20T02:34:37;583.25;;;201.07;;
23181;SDS011;11759;51.282;6.642;2023-07-20T02:37:05;598.92;;;210.40;;
23181;SDS011;11759;51.282;6.642;2023-07-20T02:39:32;582.58;;;198.70;;
23181;SDS011;11759;51.282;6.642;2023-07-20T02:41:59;613.38;;;226.88;;
23181;SDS011;11759;51.282;6.642;2023-07-20T02:44:27;590.47;;;211.65;;
23181;SDS011;11759;51.282;6.642;2023-07-20T02:46:54;593.17;;;211.35;;
23181;SDS011;11759;51.282;6.642;2023-07-20T02:49:21;588.30;;;200.82;;
23181;SDS011;11759;51.282;6.642;2023-07-20T02:51:48;585.00;;;205.48;;
23181;SDS011;11759;51.282;6.642;2023-07-20T02:54:15;590.85;;;203.63;;
23181;SDS011;11759;51.282;6.642;2023-07-20T02:56:42;583.78;;;193.75;;
23181;SDS011;11759;51.282;6.642;2023-07-20T02:59:09;616.15;;;224.82;;
23181;SDS011;11759;51.282;6.642;2023-07-20T03:01:35;583.38;;;192.80;;
23181;SDS011;11759;51.282;6.642;2023-07-20T03:04:02;598.67;;;212.10;;
23181;SDS011;11759;51.282;6.642;2023-07-20T03:06:30;579.05;;;188.40;;
23181;SDS011;11759;51.282;6.642;2023-07-20T03:08:58;621.80;;;253.48;;
23181;SDS011;11759;51.282;6.642;2023-07-20T03:11:25;577.85;;;184.63;;
23181;SDS011;11759;51.282;6.642;2023-07-20T03:13:51;587.83;;;197.73;;
23181;SDS011;11759;51.282;6.642;2023-07-20T03:16:20;585.47;;;196.20;;
23181;SDS011;11759;51.282;6.642;2023-07-20T03:18:47;588.80;;;205.48;;
23181;SDS011;11759;51.282;6.642;2023-07-20T03:21:14;587.88;;;208.73;;
23181;SDS011;11759;51.282;6.642;2023-07-20T03:23:42;584.30;;;202.00;;
23181;SDS011;11759;51.282;6.642;2023-07-20T03:26:10;599.63;;;218.43;;
23181;SDS011;11759;51.282;6.642;2023-07-20T03:28:37;598.15;;;212.88;;
23181;SDS011;11759;51.282;6.642;2023-07-20T03:31:04;591.78;;;219.98;;
23181;SDS011;11759;51.282;6.642;2023-07-20T03:33:35;632.75;;;250.98;;
23181;SDS011;11759;51.282;6.642;2023-07-20T03:36:02;575.13;;;204.98;;
23181;SDS011;11759;51.282;6.642;2023-07-20T03:38:29;609.58;;;234.10;;
23181;SDS011;11759;51.282;6.642;2023-07-20T03:40:57;583.75;;;207.98;;
23181;SDS011;11759;51.282;6.642;2023-07-20T03:43:26;656.58;;;282.95;;
23181;SDS011;11759;51.282;6.642;2023-07-20T03:45:53;583.58;;;192.93;;
23181;SDS011;11759;51.282;6.642;2023-07-20T03:48:21;622.58;;;232.45;;
23181;SDS011;11759;51.282;6.642;2023-07-20T03:50:50;578.97;;;181.27;;
23181;SDS011;11759;51.282;6.642;2023-07-20T03:53:17;593.85;;;203.80;;
23181;SDS011;11759;51.282;6.642;2023-07-20T03:55:44;583.35;;;188.65;;
23181;SDS011;11759;51.282;6.642;2023-07-20T03:58:15;606.25;;;214.75;;
23181;SDS011;11759;51.282;6.642;2023-07-20T04:00:46;586.78;;;193.32;;
23181;SDS011;11759;51.282;6.642;2023-07-20T04:03:13;597.75;;;202.77;;
23181;SDS011;11759;51.282;6.642;2023-07-20T04:05:41;584.88;;;183.13;;
23181;SDS011;11759;51.282;6.642;2023-07-20T04:08:08;584.95;;;189.60;;
23181;SDS011;11759;51.282;6.642;2023-07-20T04:10:38;617.22;;;223.95;;
23181;SDS011;11759;51.282;6.642;2023-07-20T04:13:05;587.15;;;192.95;;
23181;SDS011;11759;51.282;6.642;2023-07-20T04:15:31;599.17;;;205.40;;
23181;SDS011;11759;51.282;6.642;2023-07-20T04:17:58;615.30;;;227.50;;
23181;SDS011;11759;51.282;6.642;2023-07-20T04:20:25;592.92;;;200.40;;
23181;SDS011;11759;51.282;6.642;2023-07-20T04:22:52;582.22;;;191.13;;
23181;SDS011;11759;51.282;6.642;2023-07-20T04:25:21;589.78;;;195.20;;
23181;SDS011;11759;51.282;6.642;2023-07-20T04:27:48;593.45;;;187.07;;
23181;SDS011;11759;51.282;6.642;2023-07-20T04:30:17;618.20;;;229.73;;
23181;SDS011;11759;51.282;6.642;2023-07-20T04:32:46;588.63;;;198.88;;
23181;SDS011;11759;51.282;6.642;2023-07-20T04:35:16;620.67;;;232.07;;
23181;SDS011;11759;51.282;6.642;2023-07-20T04:37:53;589.70;;;210.57;;
23181;SDS011;11759;51.282;6.642;2023-07-20T04:40:20;602.03;;;215.27;;
23181;SDS011;11759;51.282;6.642;2023-07-20T04:42:47;592.35;;;190.38;;
23181;SDS011;11759;51.282;6.642;2023-07-20T04:45:14;620.70;;;230.52;;
23181;SDS011;11759;51.282;6.642;2023-07-20T04:47:42;600.72;;;209.18;;
23181;SDS011;11759;51.282;6.642;2023-07-20T04:50:08;654.15;;;274.98;;
23181;SDS011;11759;51.282;6.642;2023-07-20T04:52:35;590.72;;;204.82;;
23181;SDS011;11759;51.282;6.642;2023-07-20T04:55:10;620.10;;;236.70;;
23181;SDS011;11759;51.282;6.642;2023-07-20T04:57:37;601.30;;;212.07;;
23181;SDS011;11759;51.282;6.642;2023-07-20T05:00:04;601.88;;;215.80;;
23181;SDS011;11759;51.282;6.642;2023-07-20T05:02:33;598.00;;;212.30;;
23181;SDS011;11759;51.282;6.642;2023-07-20T05:05:00;616.85;;;237.52;;
23181;SDS011;11759;51.282;6.642;2023-07-20T05:07:28;601.40;;;219.07;;
23181;SDS011;11759;51.282;6.642;2023-07-20T05:09:55;611.35;;;228.48;;
23181;SDS011;11759;51.282;6.642;2023-07-20T05:12:22;616.90;;;235.32;;
23181;SDS011;11759;51.282;6.642;2023-07-20T05:14:49;613.22;;;231.38;;
23181;SDS011;11759;51.282;6.642;2023-07-20T05:17:15;598.50;;;212.90;;
23181;SDS011;11759;51.282;6.642;2023-07-20T05:19:42;636.17;;;269.70;;
23181;SDS011;11759;51.282;6.642;2023-07-20T05:22:10;600.95;;;222.38;;
23181;SDS011;11759;51.282;6.642;2023-07-20T05:24:38;628.40;;;248.60;;
23181;SDS011;11759;51.282;6.642;2023-07-20T05:27:05;608.70;;;235.88;;
23181;SDS011;11759;51.282;6.642;2023-07-20T05:29:32;601.13;;;224.75;;
23181;SDS011;11759;51.282;6.642;2023-07-20T05:31:59;602.83;;;229.48;;
23181;SDS011;11759;51.282;6.642;2023-07-20T05:34:26;604.70;;;228.50;;
23181;SDS011;11759;51.282;6.642;2023-07-20T05:36:53;597.53;;;228.70;;
23181;SDS011;11759;51.282;6.642;2023-07-20T05:39:19;657.72;;;294.13;;
23181;SDS011;11759;51.282;6.642;2023-07-20T05:41:46;595.10;;;225.05;;
23181;SDS011;11759;51.282;6.642;2023-07-20T05:44:13;643.05;;;276.25;;
23181;SDS011;11759;51.282;6.642;2023-07-20T05:46:40;597.85;;;231.27;;
23181;SDS011;11759;51.282;6.642;2023-07-20T05:49:22;611.03;;;242.88;;
23181;SDS011;11759;51.282;6.642;2023-07-20T05:51:49;600.65;;;233.80;;
23181;SDS011;11759;51.282;6.642;2023-07-20T05:54:16;658.05;;;300.77;;
23181;SDS011;11759;51.282;6.642;2023-07-20T05:56:43;600.22;;;231.30;;
23181;SDS011;11759;51.282;6.642;2023-07-20T05:59:10;603.33;;;235.45;;
23181;SDS011;11759;51.282;6.642;2023-07-20T06:01:36;595.22;;;233.45;;
23181;SDS011;11759;51.282;6.642;2023-07-20T06:04:03;632.85;;;263.90;;
23181;SDS011;11759;51.282;6.642;2023-07-20T06:06:31;595.65;;;222.27;;
23181;SDS011;11759;51.282;6.642;2023-07-20T06:08:57;608.38;;;233.32;;
23181;SDS011;11759;51.282;6.642;2023-07-20T06:11:24;584.05;;;216.65;;
23181;SDS011;11759;51.282;6.642;2023-07-20T06:13:51;590.40;;;223.23;;
23181;SDS011;11759;51.282;6.642;2023-07-20T06:16:18;596.53;;;226.35;;
23181;SDS011;11759;51.282;6.642;2023-07-20T06:18:45;587.40;;;216.40;;
23181;SDS011;11759;51.282;6.642;2023-07-20T06:21:12;618.88;;;253.55;;
23181;SDS011;11759;51.282;6.642;2023-07-20T06:23:40;597.15;;;228.15;;
23181;SDS011;11759;51.282;6.642;2023-07-20T06:26:07;591.13;;;226.82;;
23181;SDS011;11759;51.282;6.642;2023-07-20T06:28:34;603.33;;;240.55;;
23181;SDS011;11759;51.282;6.642;2023-07-20T06:31:01;585.60;;;221.40;;
23181;SDS011;11759;51.282;6.642;2023-07-20T06:33:28;605.63;;;243.55;;
23181;SDS011;11759;51.282;6.642;2023-07-20T06:35:55;591.17;;;230.73;;
23181;SDS011;11759;51.282;6.642;2023-07-20T06:38:24;611.58;;;253.93;;
23181;SDS011;11759;51.282;6.642;2023-07-20T06:40:54;590.10;;;234.63;;
23181;SDS011;11759;51.282;6.642;2023-07-20T06:43:20;643.92;;;288.92;;
23181;SDS011;11759;51.282;6.642;2023-07-20T06:45:53;589.97;;;235.57;;
23181;SDS011;11759;51.282;6.642;2023-07-20T06:48:20;604.83;;;250.98;;
23181;SDS011;11759;51.282;6.642;2023-07-20T06:50:47;597.60;;;246.85;;
23181;SDS011;11759;51.282;6.642;2023-07-20T06:53:14;613.67;;;264.23;;
23181;SDS011;11759;51.282;6.642;2023-07-20T06:55:42;591.70;;;243.68;;
23181;SDS011;11759;51.282;6.642;2023-07-20T06:58:10;593.83;;;246.90;;
23181;SDS011;11759;51.282;6.642;2023-07-20T07:00:37;608.60;;;261.90;;
23181;SDS011;11759;51.282;6.642;2023-07-20T07:03:04;585.65;;;232.25;;
23181;SDS011;11759;51.282;6.642;2023-07-20T07:05:31;603.00;;;258.75;;
23181;SDS011;11759;51.282;6.642;2023-07-20T07:08:03;589.05;;;234.63;;
23181;SDS011;11759;51.282;6.642;2023-07-20T07:10:31;637.25;;;285.40;;
23181;SDS011;11759;51.282;6.642;2023-07-20T07:12:58;586.67;;;224.90;;
23181;SDS011;11759;51.282;6.642;2023-07-20T07:15:24;665.75;;;316.83;;
23181;SDS011;11759;51.282;6.642;2023-07-20T07:17:51;597.08;;;241.95;;
23181;SDS011;11759;51.282;6.642;2023-07-20T07:20:18;620.40;;;273.10;;
23181;SDS011;11759;51.282;6.642;2023-07-20T07:22:47;649.30;;;303.77;;
23181;SDS011;11759;51.282;6.642;2023-07-20T07:25:14;617.28;;;268.23;;
23181;SDS011;11759;51.282;6.642;2023-07-20T07:27:48;643.90;;;284.98;;
23181;SDS011;11759;51.282;6.642;2023-07-20T07:30:15;611.90;;;253.05;;
23181;SDS011;11759;51.282;6.642;2023-07-20T07:32:42;599.47;;;237.82;;
23181;SDS011;11759;51.282;6.642;2023-07-20T07:35:09;612.85;;;265.73;;
23181;SDS011;11759;51.282;6.642;2023-07-20T07:37:35;613.63;;;268.92;;
23181;SDS011;11759;51.282;6.642;2023-07-20T07:40:22;592.38;;;252.70;;
23181;SDS011;11759;51.282;6.642;2023-07-20T07:42:49;642.70;;;314.75;;
23181;SDS011;11759;51.282;6.642;2023-07-20T07:45:16;633.92;;;308.73;;
23181;SDS011;11759;51.282;6.642;2023-07-20T07:47:43;643.30;;;315.58;;
23181;SDS011;11759;51.282;6.642;2023-07-20T07:50:10;618.60;;;289.85;;
23181;SDS011;11759;51.282;6.642;2023-07-20T07:52:37;597.20;;;257.88;;
23181;SDS011;11759;51.282;6.642;2023-07-20T07:55:04;602.78;;;271.23;;
23181;SDS011;11759;51.282;6.642;2023-07-20T07:57:31;594.50;;;254.90;;
23181;SDS011;11759;51.282;6.642;2023-07-20T07:59:58;646.80;;;313.77;;
23181;SDS011;11759;51.282;6.642;2023-07-20T08:02:24;590.88;;;252.70;;
23181;SDS011;11759;51.282;6.642;2023-07-20T08:04:51;630.05;;;302.02;;
23181;SDS011;11759;51.282;6.642;2023-07-20T08:07:19;596.22;;;264.27;;
23181;SDS011;11759;51.282;6.642;2023-07-20T08:09:45;596.60;;;262.52;;
23181;SDS011;11759;51.282;6.642;2023-07-20T08:12:12;612.25;;;285.30;;
23181;SDS011;11759;51.282;6.642;2023-07-20T08:14:40;601.63;;;291.20;;
23181;SDS011;11759;51.282;6.642;2023-07-20T08:17:06;660.83;;;343.73;;
23181;SDS011;11759;51.282;6.642;2023-07-20T08:19:33;601.75;;;283.45;;
23181;SDS011;11759;51.282;6.642;2023-07-20T08:22:01;618.65;;;305.45;;
23181;SDS011;11759;51.282;6.642;2023-07-20T08:24:29;598.55;;;284.50;;
23181;SDS011;11759;51.282;6.642;2023-07-20T08:26:55;608.40;;;300.77;;
23181;SDS011;11759;51.282;6.642;2023-07-20T08:29:23;603.95;;;289.15;;
23181;SDS011;11759;51.282;6.642;2023-07-20T08:31:50;614.72;;;294.95;;
23181;SDS011;11759;51.282;6.642;2023-07-20T08:34:17;604.08;;;280.45;;
23181;SDS011;11759;51.282;6.642;2023-07-20T08:36:57;607.30;;;289.33;;
23181;SDS011;11759;51.282;6.642;2023-07-20T08:39:24;599.40;;;277.40;;
23181;SDS011;11759;51.282;6.642;2023-07-20T08:41:51;599.33;;;272.75;;
23181;SDS011;11759;51.282;6.642;2023-07-20T08:44:18;604.35;;;277.30;;
23181;SDS011;11759;51.282;6.642;2023-07-20T08:46:45;592.60;;;259.73;;
23181;SDS011;11759;51.282;6.642;2023-07-20T08:49:12;634.25;;;308.55;;
23181;SDS011;11759;51.282;6.642;2023-07-20T08:51:39;593.42;;;261.95;;
23181;SDS011;11759;51.282;6.642;2023-07-20T08:54:07;645.33;;;310.58;;
23181;SDS011;11759;51.282;6.642;2023-07-20T08:56:37;594.28;;;263.73;;
23181;SDS011;11759;51.282;6.642;2023-07-20T08:59:04;608.80;;;274.55;;
23181;SDS011;11759;51.282;6.642;2023-07-20T09:01:31;592.00;;;259.67;;
23181;SDS011;11759;51.282;6.642;2023-07-20T09:03:58;607.95;;;285.45;;
23181;SDS011;11759;51.282;6.642;2023-07-20T09:06:25;591.78;;;265.80;;
23181;SDS011;11759;51.282;6.642;2023-07-20T09:08:53;619.45;;;297.90;;
23181;SDS011;11759;51.282;6.642;2023-07-20T09:11:20;604.05;;;294.23;;
23181;SDS011;11759;51.282;6.642;2023-07-20T09:13:47;605.95;;;305.13;;
23181;SDS011;11759;51.282;6.642;2023-07-20T09:16:17;622.90;;;336.92;;
23181;SDS011;11759;51.282;6.642;2023-07-20T09:18:44;612.47;;;335.80;;
23181;SDS011;11759;51.282;6.642;2023-07-20T09:21:11;662.22;;;413.27;;
23181;SDS011;11759;51.282;6.642;2023-07-20T09:23:38;611.35;;;342.10;;
23181;SDS011;11759;51.282;6.642;2023-07-20T09:26:12;624.45;;;346.85;;
23181;SDS011;11759;51.282;6.642;2023-07-20T09:28:43;605.60;;;316.33;;
23181;SDS011;11759;51.282;6.642;2023-07-20T09:31:17;637.28;;;346.98;;
23181;SDS011;11759;51.282;6.642;2023-07-20T09:33:45;602.60;;;307.67;;
23181;SDS011;11759;51.282;6.642;2023-07-20T09:36:15;615.77;;;323.70;;
23181;SDS011;11759;51.282;6.642;2023-07-20T09:39:03;714.30;;;437.25;;
23181;SDS011;11759;51.282;6.642;2023-07-20T09:41:39;606.72;;;326.73;;
23181;SDS011;11759;51.282;6.642;2023-07-20T09:44:11;627.28;;;361.50;;
23181;SDS011;11759;51.282;6.642;2023-07-20T09:46:45;617.33;;;356.92;;
23181;SDS011;11759;51.282;6.642;2023-07-20T09:49:19;636.95;;;385.33;;
23181;SDS011;11759;51.282;6.642;2023-07-20T09:51:49;621.08;;;359.77;;
23181;SDS011;11759;51.282;6.642;2023-07-20T09:54:16;620.80;;;347.30;;
23181;SDS011;11759;51.282;6.642;2023-07-20T09:56:44;615.97;;;344.85;;
23181;SDS011;11759;51.282;6.642;2023-07-20T09:59:10;666.78;;;379.05;;
23181;SDS011;11759;51.282;6.642;2023-07-20T10:01:37;606.30;;;296.58;;
23181;SDS011;11759;51.282;6.642;2023-07-20T10:04:08;617.83;;;309.80;;
23181;SDS011;11759;51.282;6.642;2023-07-20T10:06:36;606.17;;;302.73;;
23181;SDS011;11759;51.282;6.642;2023-07-20T10:09:06;617.67;;;319.00;;
23181;SDS011;11759;51.282;6.642;2023-07-20T10:11:35;606.05;;;308.20;;
23181;SDS011;11759;51.282;6.642;2023-07-20T10:14:03;615.15;;;332.80;;
23181;SDS011;11759;51.282;6.642;2023-07-20T10:19:07;627.50;;;374.63;;
23181;SDS011;11759;51.282;6.642;2023-07-20T10:21:40;633.38;;;419.25;;
23181;SDS011;11759;51.282;6.642;2023-07-20T10:24:09;678.80;;;485.33;;
23181;SDS011;11759;51.282;6.642;2023-07-20T10:26:37;643.30;;;457.75;;
23181;SDS011;11759;51.282;6.642;2023-07-20T10:29:07;665.72;;;485.90;;
23181;SDS011;11759;51.282;6.642;2023-07-20T10:31:35;647.10;;;491.30;;
23181;SDS011;11759;51.282;6.642;2023-07-20T10:34:03;717.03;;;598.97;;
23181;SDS011;11759;51.282;6.642;2023-07-20T10:36:30;646.25;;;511.15;;
23181;SDS011;11759;51.282;6.642;2023-07-20T10:38:57;660.58;;;503.23;;
23181;SDS011;11759;51.282;6.642;2023-07-20T10:41:29;648.28;;;481.42;;
23181;SDS011;11759;51.282;6.642;2023-07-20T10:44:09;641.40;;;474.10;;
23181;SDS011;11759;51.282;6.642;2023-07-20T10:49:06;639.30;;;465.23;;
23181;SDS011;11759;51.282;6.642;2023-07-20T10:51:41;689.65;;;528.10;;
23181;SDS011;11759;51.282;6.642;2023-07-20T10:56:42;649.55;;;457.23;;
23181;SDS011;11759;51.282;6.642;2023-07-20T11:01:55;657.03;;;459.70;;
23181;SDS011;11759;51.282;6.642;2023-07-20T11:04:42;633.67;;;434.77;;
23181;SDS011;11759;51.282;6.642;2023-07-20T11:07:10;634.47;;;447.05;;
23181;SDS011;11759;51.282;6.642;2023-07-20T11:09:37;684.90;;;490.02;;
23181;SDS011;11759;51.282;6.642;2023-07-20T11:12:18;644.38;;;495.08;;
23181;SDS011;11759;51.282;6.642;2023-07-20T11:14:55;689.00;;;567.42;;
23181;SDS011;11759;51.282;6.642;2023-07-20T11:17:29;668.50;;;592.80;;
23181;SDS011;11759;51.282;6.642;2023-07-20T11:19:58;672.42;;;598.33;;
23181;SDS011;11759;51.282;6.642;2023-07-20T11:22:32;747.20;;;668.65;;
23181;SDS011;11759;51.282;6.642;2023-07-20T11:24:59;727.00;;;651.42;;
23181;SDS011;11759;51.282;6.642;2023-07-20T11:27:26;734.63;;;658.65;;
23181;SDS011;11759;51.282;6.642;2023-07-20T11:29:55;733.75;;;657.92;;
23181;SDS011;11759;51.282;6.642;2023-07-20T11:32:22;723.05;;;648.05;;
23181;SDS011;11759;51.282;6.642;2023-07-20T11:34:49;781.55;;;701.83;;
23181;SDS011;11759;51.282;6.642;2023-07-20T11:37:18;754.03;;;677.80;;
23181;SDS011;11759;51.282;6.642;2023-07-20T11:39:45;751.45;;;674.35;;
23181;SDS011;11759;51.282;6.642;2023-07-20T11:42:13;692.78;;;618.28;;
23181;SDS011;11759;51.282;6.642;2023-07-20T11:45:01;684.58;;;610.30;;
23181;SDS011;11759;51.282;6.642;2023-07-20T11:47:31;722.75;;;647.15;;
23181;SDS011;11759;51.282;6.642;2023-07-20T11:49:59;759.55;;;680.85;;
23181;SDS011;11759;51.282;6.642;2023-07-20T11:52:30;707.90;;;633.13;;
23181;SDS011;11759;51.282;6.642;2023-07-20T11:54:57;718.63;;;643.42;;
23181;SDS011;11759;51.282;6.642;2023-07-20T11:57:24;728.13;;;653.13;;
23181;SDS011;11759;51.282;6.642;2023-07-20T11:59:58;743.22;;;666.75;;
23181;SDS011;11759;51.282;6.642;2023-07-20T12:02:35;752.92;;;677.13;;
23181;SDS011;11759;51.282;6.642;2023-07-20T12:05:02;770.80;;;693.28;;
23181;SDS011;11759;51.282;6.642;2023-07-20T12:07:35;706.53;;;631.90;;
23181;SDS011;11759;51.282;6.642;2023-07-20T12:10:07;732.83;;;653.83;;
23181;SDS011;11759;51.282;6.642;2023-07-20T12:12:40;661.85;;;583.88;;
23181;SDS011;11759;51.282;6.642;2023-07-20T12:17:51;706.17;;;631.40;;
23181;SDS011;11759;51.282;6.642;2023-07-20T12:20:32;814.00;;;733.13;;
23181;SDS011;11759;51.282;6.642;2023-07-20T12:25:32;909.03;;;827.78;;
23181;SDS011;11759;51.282;6.642;2023-07-20T12:28:10;1014.78;;;924.40;;
23181;SDS011;11759;51.282;6.642;2023-07-20T12:30:39;1005.92;;;919.75;;
23181;SDS011;11759;51.282;6.642;2023-07-20T12:33:07;1002.22;;;916.78;;
23181;SDS011;11759;51.282;6.642;2023-07-20T12:35:34;1020.47;;;931.50;;
23181;SDS011;11759;51.282;6.642;2023-07-20T12:38:01;951.05;;;867.95;;
23181;SDS011;11759;51.282;6.642;2023-07-20T12:40:28;917.42;;;834.83;;
23181;SDS011;11759;51.282;6.642;2023-07-20T12:42:55;840.88;;;761.90;;
23181;SDS011;11759;51.282;6.642;2023-07-20T12:45:21;767.97;;;690.40;;
23181;SDS011;11759;51.282;6.642;2023-07-20T12:47:48;693.78;;;618.55;;
23181;SDS011;11759;51.282;6.642;2023-07-20T12:50:16;698.70;;;595.65;;
23181;SDS011;11759;51.282;6.642;2023-07-20T12:52:43;659.42;;;529.70;;
23181;SDS011;11759;51.282;6.642;2023-07-20T12:55:10;672.28;;;519.08;;
23181;SDS011;11759;51.282;6.642;2023-07-20T12:57:37;698.50;;;557.45;;
23181;SDS011;11759;51.282;6.642;2023-07-20T13:00:05;657.75;;;497.05;;
23181;SDS011;11759;51.282;6.642;2023-07-20T13:02:34;699.42;;;537.45;;
23181;SDS011;11759;51.282;6.642;2023-07-20T13:05:02;645.53;;;448.25;;
23181;SDS011;11759;51.282;6.642;2023-07-20T13:07:33;687.28;;;497.20;;
23181;SDS011;11759;51.282;6.642;2023-07-20T13:10:04;641.22;;;420.38;;
23181;SDS011;11759;51.282;6.642;2023-07-20T13:12:32;641.45;;;415.13;;
23181;SDS011;11759;51.282;6.642;2023-07-20T13:15:00;628.00;;;410.00;;
23181;SDS011;11759;51.282;6.642;2023-07-20T13:17:28;647.70;;;448.20;;
23181;SDS011;11759;51.282;6.642;2023-07-20T13:19:55;631.97;;;409.40;;
23181;SDS011;11759;51.282;6.642;2023-07-20T13:22:22;639.35;;;422.63;;
23181;SDS011;11759;51.282;6.642;2023-07-20T13:24:49;626.13;;;409.02;;
23181;SDS011;11759;51.282;6.642;2023-07-20T13:27:17;636.30;;;414.27;;
23181;SDS011;11759;51.282;6.642;2023-07-20T13:29:45;627.63;;;401.88;;
23181;SDS011;11759;51.282;6.642;2023-07-20T13:32:14;631.17;;;405.48;;
23181;SDS011;11759;51.282;6.642;2023-07-20T13:34:44;628.78;;;407.25;;
23181;SDS011;11759;51.282;6.642;2023-07-20T13:37:14;633.35;;;413.98;;
23181;SDS011;11759;51.282;6.642;2023-07-20T13:39:43;631.13;;;420.77;;
23181;SDS011;11759;51.282;6.642;2023-07-20T13:42:12;634.08;;;427.88;;
23181;SDS011;11759;51.282;6.642;2023-07-20T13:44:40;655.00;;;482.63;;
23181;SDS011;11759;51.282;6.642;2023-07-20T13:47:08;648.92;;;495.55;;
23181;SDS011;11759;51.282;6.642;2023-07-20T13:49:39;659.05;;;506.20;;
23181;SDS011;11759;51.282;6.642;2023-07-20T13:52:13;660.03;;;496.88;;
23181;SDS011;11759;51.282;6.642;2023-07-20T13:54:44;640.30;;;471.02;;
23181;SDS011;11759;51.282;6.642;2023-07-20T13:57:15;641.47;;;459.23;;
23181;SDS011;11759;51.282;6.642;2023-07-20T13:59:43;638.40;;;458.52;;
23181;SDS011;11759;51.282;6.642;2023-07-20T14:02:13;657.85;;;464.75;;
23181;SDS011;11759;51.282;6.642;2023-07-20T14:04:45;644.05;;;462.52;;
23181;SDS011;11759;51.282;6.642;2023-07-20T14:07:12;662.63;;;493.60;;
23181;SDS011;11759;51.282;6.642;2023-07-20T14:09:42;633.58;;;450.13;;
23181;SDS011;11759;51.282;6.642;2023-07-20T14:12:12;657.47;;;478.73;;
23181;SDS011;11759;51.282;6.642;2023-07-20T14:14:43;643.13;;;478.23;;
23181;SDS011;11759;51.282;6.642;2023-07-20T14:17:09;682.53;;;544.58;;
23181;SDS011;11759;51.282;6.642;2023-07-20T14:19:37;650.67;;;516.17;;
23181;SDS011;11759;51.282;6.642;2023-07-20T14:22:06;665.97;;;568.97;;
23181;SDS011;11759;51.282;6.642;2023-07-20T14:24:33;753.95;;;673.60;;
23181;SDS011;11759;51.282;6.642;2023-07-20T14:27:00;768.30;;;691.53;;
23181;SDS011;11759;51.282;6.642;2023-07-20T14:29:27;885.50;;;800.00;;
23181;SDS011;11759;51.282;6.642;2023-07-20T14:31:58;810.20;;;732.30;;
23181;SDS011;11759;51.282;6.642;2023-07-20T14:34:25;830.65;;;750.80;;